sensor_id;sensor_type;location;lat;lon;timestamp;P1;durP1;ratioP1;P2;durP2;ratioP2
15833;SDS011;8017;50.812;4.934;2023-02-28T00:01:39;8.93;;;5.47;;
15833;SDS011;8017;50.812;4.934;2023-02-28T00:04:43;6.13;;;4.80;;
15833;SDS011;8017;50.812;4.934;2023-02-28T00:07:45;7.13;;;5.63;;
15833;SDS011;8017;50.812;4.934;2023-02-28T00:10:47;7.37;;;5.07;;
15833;SDS011;8017;50.812;4.934;2023-02-28T00:13:49;6.03;;;5.27;;
15833;SDS011;8017;50.812;4.934;2023-02-28T00:16:51;6.07;;;5.00;;
15833;SDS011;8017;50.812;4.934;2023-02-28T00:19:54;11.03;;;5.57;;
15833;SDS011;8017;50.812;4.934;2023-02-28T00:22:56;7.90;;;5.10;;
15833;SDS011;8017;50.812;4.934;2023-02-28T00:25:58;7.73;;;5.00;;
15833;SDS011;8017;50.812;4.934;2023-02-28T00:29:00;7.70;;;5.50;;
15833;SDS011;8017;50.812;4.934;2023-02-28T00:32:03;8.50;;;5.20;;
15833;SDS011;8017;50.812;4.934;2023-02-28T00:35:07;8.03;;;4.53;;
15833;SDS011;8017;50.812;4.934;2023-02-28T00:38:10;9.23;;;5.47;;
15833;SDS011;8017;50.812;4.934;2023-02-28T00:41:12;8.10;;;5.30;;
15833;SDS011;8017;50.812;4.934;2023-02-28T00:44:14;8.47;;;5.73;;
15833;SDS011;8017;50.812;4.934;2023-02-28T00:47:15;9.20;;;5.17;;
15833;SDS011;8017;50.812;4.934;2023-02-28T00:50:19;8.13;;;5.50;;
15833;SDS011;8017;50.812;4.934;2023-02-28T00:53:21;8.73;;;5.13;;
15833;SDS011;8017;50.812;4.934;2023-02-28T00:56:23;11.87;;;5.90;;
15833;SDS011;8017;50.812;4.934;2023-02-28T00:59:25;7.67;;;6.07;;
15833;SDS011;8017;50.812;4.934;2023-02-28T01:02:27;9.37;;;6.57;;
15833;SDS011;8017;50.812;4.934;2023-02-28T01:05:30;13.50;;;5.83;;
15833;SDS011;8017;50.812;4.934;2023-02-28T01:08:32;6.87;;;5.00;;
15833;SDS011;8017;50.812;4.934;2023-02-28T01:11:34;7.80;;;5.23;;
15833;SDS011;8017;50.812;4.934;2023-02-28T01:14:36;9.07;;;5.73;;
15833;SDS011;8017;50.812;4.934;2023-02-28T01:17:38;9.47;;;6.47;;
15833;SDS011;8017;50.812;4.934;2023-02-28T01:20:42;8.47;;;6.30;;
15833;SDS011;8017;50.812;4.934;2023-02-28T01:23:44;7.50;;;6.03;;
15833;SDS011;8017;50.812;4.934;2023-02-28T01:26:46;8.90;;;6.67;;
15833;SDS011;8017;50.812;4.934;2023-02-28T01:29:48;8.43;;;5.87;;
15833;SDS011;8017;50.812;4.934;2023-02-28T01:32:52;8.10;;;5.93;;
15833;SDS011;8017;50.812;4.934;2023-02-28T01:35:58;10.53;;;6.17;;
15833;SDS011;8017;50.812;4.934;2023-02-28T01:39:01;9.90;;;5.67;;
15833;SDS011;8017;50.812;4.934;2023-02-28T01:42:03;7.13;;;5.73;;
15833;SDS011;8017;50.812;4.934;2023-02-28T01:45:18;7.97;;;5.80;;
15833;SDS011;8017;50.812;4.934;2023-02-28T01:48:24;8.00;;;5.93;;
15833;SDS011;8017;50.812;4.934;2023-02-28T01:51:30;9.37;;;6.33;;
15833;SDS011;8017;50.812;4.934;2023-02-28T01:54:36;8.87;;;6.57;;
15833;SDS011;8017;50.812;4.934;2023-02-28T01:57:38;8.70;;;6.27;;
15833;SDS011;8017;50.812;4.934;2023-02-28T02:00:43;8.53;;;6.63;;
15833;SDS011;8017;50.812;4.934;2023-02-28T02:03:45;7.83;;;6.53;;
15833;SDS011;8017;50.812;4.934;2023-02-28T02:06:48;12.43;;;6.57;;
15833;SDS011;8017;50.812;4.934;2023-02-28T02:09:50;7.60;;;6.80;;
15833;SDS011;8017;50.812;4.934;2023-02-28T02:16:30;12.37;;;7.13;;
15833;SDS011;8017;50.812;4.934;2023-02-28T02:19:46;10.30;;;6.70;;
15833;SDS011;8017;50.812;4.934;2023-02-28T02:23:20;12.87;;;7.70;;
15833;SDS011;8017;50.812;4.934;2023-02-28T02:26:53;11.60;;;6.47;;
15833;SDS011;8017;50.812;4.934;2023-02-28T02:33:58;8.53;;;6.47;;
15833;SDS011;8017;50.812;4.934;2023-02-28T02:37:28;9.53;;;6.57;;
15833;SDS011;8017;50.812;4.934;2023-02-28T02:40:38;12.97;;;6.67;;
15833;SDS011;8017;50.812;4.934;2023-02-28T02:43:46;10.63;;;7.10;;
15833;SDS011;8017;50.812;4.934;2023-02-28T02:46:53;9.40;;;7.20;;
15833;SDS011;8017;50.812;4.934;2023-02-28T02:50:01;10.37;;;6.67;;
15833;SDS011;8017;50.812;4.934;2023-02-28T02:53:07;11.40;;;6.63;;
15833;SDS011;8017;50.812;4.934;2023-02-28T02:56:12;8.40;;;6.77;;
15833;SDS011;8017;50.812;4.934;2023-02-28T02:59:16;9.73;;;6.97;;
15833;SDS011;8017;50.812;4.934;2023-02-28T03:02:21;8.67;;;7.27;;
15833;SDS011;8017;50.812;4.934;2023-02-28T03:05:28;11.53;;;6.97;;
15833;SDS011;8017;50.812;4.934;2023-02-28T03:08:35;11.00;;;7.20;;
15833;SDS011;8017;50.812;4.934;2023-02-28T03:11:38;10.77;;;6.90;;
15833;SDS011;8017;50.812;4.934;2023-02-28T03:14:45;9.33;;;7.80;;
15833;SDS011;8017;50.812;4.934;2023-02-28T03:18:00;12.70;;;9.23;;
15833;SDS011;8017;50.812;4.934;2023-02-28T03:21:09;11.43;;;8.50;;
15833;SDS011;8017;50.812;4.934;2023-02-28T03:24:19;11.27;;;8.77;;
15833;SDS011;8017;50.812;4.934;2023-02-28T03:27:26;13.17;;;7.63;;
15833;SDS011;8017;50.812;4.934;2023-02-28T03:30:33;10.10;;;8.30;;
15833;SDS011;8017;50.812;4.934;2023-02-28T03:33:40;15.83;;;8.27;;
15833;SDS011;8017;50.812;4.934;2023-02-28T03:36:47;13.27;;;8.13;;
15833;SDS011;8017;50.812;4.934;2023-02-28T03:39:53;10.20;;;7.60;;
15833;SDS011;8017;50.812;4.934;2023-02-28T03:42:59;11.40;;;8.10;;
15833;SDS011;8017;50.812;4.934;2023-02-28T03:46:05;11.10;;;7.30;;
15833;SDS011;8017;50.812;4.934;2023-02-28T03:49:12;14.20;;;8.27;;
15833;SDS011;8017;50.812;4.934;2023-02-28T03:52:21;10.43;;;8.03;;
15833;SDS011;8017;50.812;4.934;2023-02-28T03:55:27;9.97;;;8.10;;
15833;SDS011;8017;50.812;4.934;2023-02-28T03:58:35;13.07;;;8.37;;
15833;SDS011;8017;50.812;4.934;2023-02-28T04:01:42;10.57;;;8.20;;
15833;SDS011;8017;50.812;4.934;2023-02-28T04:04:45;14.33;;;8.30;;
15833;SDS011;8017;50.812;4.934;2023-02-28T04:07:49;10.43;;;7.90;;
15833;SDS011;8017;50.812;4.934;2023-02-28T04:10:53;9.73;;;8.03;;
15833;SDS011;8017;50.812;4.934;2023-02-28T04:13:59;12.53;;;8.23;;
15833;SDS011;8017;50.812;4.934;2023-02-28T04:17:00;12.33;;;8.63;;
15833;SDS011;8017;50.812;4.934;2023-02-28T04:20:02;11.07;;;7.63;;
15833;SDS011;8017;50.812;4.934;2023-02-28T04:23:10;17.67;;;9.27;;
15833;SDS011;8017;50.812;4.934;2023-02-28T04:26:12;14.00;;;8.67;;
15833;SDS011;8017;50.812;4.934;2023-02-28T04:29:19;14.63;;;7.67;;
15833;SDS011;8017;50.812;4.934;2023-02-28T04:32:23;11.53;;;8.97;;
15833;SDS011;8017;50.812;4.934;2023-02-28T04:35:25;10.60;;;8.13;;
15833;SDS011;8017;50.812;4.934;2023-02-28T04:38:29;9.70;;;7.97;;
15833;SDS011;8017;50.812;4.934;2023-02-28T04:41:31;11.70;;;8.83;;
15833;SDS011;8017;50.812;4.934;2023-02-28T04:44:33;11.27;;;8.83;;
15833;SDS011;8017;50.812;4.934;2023-02-28T04:47:35;10.27;;;8.93;;
15833;SDS011;8017;50.812;4.934;2023-02-28T04:50:37;12.40;;;8.77;;
15833;SDS011;8017;50.812;4.934;2023-02-28T04:53:40;18.73;;;9.73;;
15833;SDS011;8017;50.812;4.934;2023-02-28T04:56:43;14.63;;;8.27;;
15833;SDS011;8017;50.812;4.934;2023-02-28T04:59:45;13.10;;;9.20;;
15833;SDS011;8017;50.812;4.934;2023-02-28T05:02:47;15.40;;;9.60;;
15833;SDS011;8017;50.812;4.934;2023-02-28T05:05:49;11.00;;;9.57;;
15833;SDS011;8017;50.812;4.934;2023-02-28T05:08:52;10.27;;;9.00;;
15833;SDS011;8017;50.812;4.934;2023-02-28T05:11:54;12.27;;;9.37;;
15833;SDS011;8017;50.812;4.934;2023-02-28T05:14:56;13.63;;;9.57;;
15833;SDS011;8017;50.812;4.934;2023-02-28T05:17:58;11.13;;;9.90;;
15833;SDS011;8017;50.812;4.934;2023-02-28T05:21:00;14.03;;;10.20;;
15833;SDS011;8017;50.812;4.934;2023-02-28T05:24:05;13.83;;;9.73;;
15833;SDS011;8017;50.812;4.934;2023-02-28T05:27:10;15.67;;;11.17;;
15833;SDS011;8017;50.812;4.934;2023-02-28T05:30:12;17.67;;;10.83;;
15833;SDS011;8017;50.812;4.934;2023-02-28T05:33:15;14.83;;;10.93;;
15833;SDS011;8017;50.812;4.934;2023-02-28T05:36:17;13.67;;;11.27;;
15833;SDS011;8017;50.812;4.934;2023-02-28T05:39:20;14.73;;;10.67;;
15833;SDS011;8017;50.812;4.934;2023-02-28T05:42:22;11.90;;;10.60;;
15833;SDS011;8017;50.812;4.934;2023-02-28T05:45:24;14.27;;;10.30;;
15833;SDS011;8017;50.812;4.934;2023-02-28T05:48:26;16.47;;;11.23;;
15833;SDS011;8017;50.812;4.934;2023-02-28T05:51:28;16.03;;;11.33;;
15833;SDS011;8017;50.812;4.934;2023-02-28T05:54:31;13.83;;;10.67;;
15833;SDS011;8017;50.812;4.934;2023-02-28T05:57:33;13.40;;;10.87;;
15833;SDS011;8017;50.812;4.934;2023-02-28T06:00:35;15.57;;;11.03;;
15833;SDS011;8017;50.812;4.934;2023-02-28T06:03:37;16.90;;;12.17;;
15833;SDS011;8017;50.812;4.934;2023-02-28T06:06:39;15.50;;;11.90;;
15833;SDS011;8017;50.812;4.934;2023-02-28T06:09:42;12.73;;;10.93;;
15833;SDS011;8017;50.812;4.934;2023-02-28T06:12:44;16.10;;;10.60;;
15833;SDS011;8017;50.812;4.934;2023-02-28T06:15:46;17.03;;;10.37;;
15833;SDS011;8017;50.812;4.934;2023-02-28T06:18:48;12.83;;;10.33;;
15833;SDS011;8017;50.812;4.934;2023-02-28T06:21:51;15.77;;;10.87;;
15833;SDS011;8017;50.812;4.934;2023-02-28T06:24:55;15.93;;;10.33;;
15833;SDS011;8017;50.812;4.934;2023-02-28T06:27:57;14.23;;;10.33;;
15833;SDS011;8017;50.812;4.934;2023-02-28T06:30:59;15.47;;;11.07;;
15833;SDS011;8017;50.812;4.934;2023-02-28T06:34:06;13.10;;;10.67;;
15833;SDS011;8017;50.812;4.934;2023-02-28T06:37:08;16.13;;;10.57;;
15833;SDS011;8017;50.812;4.934;2023-02-28T06:40:12;16.57;;;11.37;;
15833;SDS011;8017;50.812;4.934;2023-02-28T06:43:14;14.07;;;10.70;;
15833;SDS011;8017;50.812;4.934;2023-02-28T06:46:16;13.83;;;10.70;;
15833;SDS011;8017;50.812;4.934;2023-02-28T06:49:18;16.80;;;11.90;;
15833;SDS011;8017;50.812;4.934;2023-02-28T06:52:20;11.67;;;10.43;;
15833;SDS011;8017;50.812;4.934;2023-02-28T06:55:23;15.97;;;11.33;;
15833;SDS011;8017;50.812;4.934;2023-02-28T06:58:25;16.80;;;11.60;;
15833;SDS011;8017;50.812;4.934;2023-02-28T07:01:27;13.57;;;11.20;;
15833;SDS011;8017;50.812;4.934;2023-02-28T07:04:29;13.43;;;11.07;;
15833;SDS011;8017;50.812;4.934;2023-02-28T07:07:31;16.53;;;10.33;;
15833;SDS011;8017;50.812;4.934;2023-02-28T07:10:36;16.20;;;11.23;;
15833;SDS011;8017;50.812;4.934;2023-02-28T07:13:38;12.40;;;10.57;;
15833;SDS011;8017;50.812;4.934;2023-02-28T07:16:40;12.60;;;9.87;;
15833;SDS011;8017;50.812;4.934;2023-02-28T07:19:42;12.30;;;10.60;;
15833;SDS011;8017;50.812;4.934;2023-02-28T07:22:44;13.97;;;9.47;;
15833;SDS011;8017;50.812;4.934;2023-02-28T07:25:53;12.47;;;9.30;;
15833;SDS011;8017;50.812;4.934;2023-02-28T07:28:55;12.77;;;8.60;;
15833;SDS011;8017;50.812;4.934;2023-02-28T07:31:57;11.50;;;8.60;;
15833;SDS011;8017;50.812;4.934;2023-02-28T07:34:59;14.03;;;8.77;;
15833;SDS011;8017;50.812;4.934;2023-02-28T07:38:00;11.17;;;8.53;;
15833;SDS011;8017;50.812;4.934;2023-02-28T07:41:05;13.23;;;9.00;;
15833;SDS011;8017;50.812;4.934;2023-02-28T07:44:08;16.37;;;8.97;;
15833;SDS011;8017;50.812;4.934;2023-02-28T07:47:10;12.60;;;8.30;;
15833;SDS011;8017;50.812;4.934;2023-02-28T07:50:13;13.27;;;8.53;;
15833;SDS011;8017;50.812;4.934;2023-02-28T07:53:16;10.87;;;8.00;;
15833;SDS011;8017;50.812;4.934;2023-02-28T07:56:19;17.03;;;8.50;;
15833;SDS011;8017;50.812;4.934;2023-02-28T07:59:21;11.17;;;7.47;;
15833;SDS011;8017;50.812;4.934;2023-02-28T08:02:23;10.40;;;7.17;;
15833;SDS011;8017;50.812;4.934;2023-02-28T08:05:25;11.70;;;7.23;;
15833;SDS011;8017;50.812;4.934;2023-02-28T08:08:27;10.97;;;6.80;;
15833;SDS011;8017;50.812;4.934;2023-02-28T08:11:32;8.50;;;6.00;;
15833;SDS011;8017;50.812;4.934;2023-02-28T08:14:34;8.30;;;6.87;;
15833;SDS011;8017;50.812;4.934;2023-02-28T08:17:36;9.47;;;6.43;;
15833;SDS011;8017;50.812;4.934;2023-02-28T08:20:39;11.70;;;6.00;;
15833;SDS011;8017;50.812;4.934;2023-02-28T08:23:40;8.83;;;6.27;;
15833;SDS011;8017;50.812;4.934;2023-02-28T08:26:44;9.83;;;6.53;;
15833;SDS011;8017;50.812;4.934;2023-02-28T08:29:46;7.73;;;6.03;;
15833;SDS011;8017;50.812;4.934;2023-02-28T08:32:48;9.37;;;6.50;;
15833;SDS011;8017;50.812;4.934;2023-02-28T08:35:52;9.53;;;6.07;;
15833;SDS011;8017;50.812;4.934;2023-02-28T08:38:56;9.13;;;5.83;;
15833;SDS011;8017;50.812;4.934;2023-02-28T08:42:00;7.13;;;5.20;;
15833;SDS011;8017;50.812;4.934;2023-02-28T08:45:03;7.40;;;5.53;;
15833;SDS011;8017;50.812;4.934;2023-02-28T08:48:05;6.10;;;5.40;;
15833;SDS011;8017;50.812;4.934;2023-02-28T08:51:08;6.00;;;4.70;;
15833;SDS011;8017;50.812;4.934;2023-02-28T08:54:11;11.37;;;5.83;;
15833;SDS011;8017;50.812;4.934;2023-02-28T08:57:17;7.20;;;5.10;;
15833;SDS011;8017;50.812;4.934;2023-02-28T09:00:19;7.17;;;5.37;;
15833;SDS011;8017;50.812;4.934;2023-02-28T09:03:22;10.33;;;5.17;;
15833;SDS011;8017;50.812;4.934;2023-02-28T09:06:25;6.00;;;4.87;;
15833;SDS011;8017;50.812;4.934;2023-02-28T09:09:28;8.67;;;5.20;;
15833;SDS011;8017;50.812;4.934;2023-02-28T09:12:33;7.03;;;5.13;;
15833;SDS011;8017;50.812;4.934;2023-02-28T09:15:36;7.03;;;5.07;;
15833;SDS011;8017;50.812;4.934;2023-02-28T09:18:38;6.70;;;5.03;;
15833;SDS011;8017;50.812;4.934;2023-02-28T09:21:41;5.97;;;4.80;;
15833;SDS011;8017;50.812;4.934;2023-02-28T09:24:42;6.37;;;5.07;;
15833;SDS011;8017;50.812;4.934;2023-02-28T09:27:46;7.33;;;5.13;;
15833;SDS011;8017;50.812;4.934;2023-02-28T09:30:49;6.23;;;4.40;;
15833;SDS011;8017;50.812;4.934;2023-02-28T09:33:52;5.03;;;4.00;;
15833;SDS011;8017;50.812;4.934;2023-02-28T09:36:56;6.13;;;3.50;;
15833;SDS011;8017;50.812;4.934;2023-02-28T09:39:58;4.40;;;4.00;;
15833;SDS011;8017;50.812;4.934;2023-02-28T09:43:02;5.40;;;3.80;;
15833;SDS011;8017;50.812;4.934;2023-02-28T09:46:05;10.90;;;4.80;;
15833;SDS011;8017;50.812;4.934;2023-02-28T09:49:16;7.03;;;3.90;;
15833;SDS011;8017;50.812;4.934;2023-02-28T09:52:21;6.43;;;3.63;;
15833;SDS011;8017;50.812;4.934;2023-02-28T09:55:28;4.97;;;3.47;;
15833;SDS011;8017;50.812;4.934;2023-02-28T09:58:37;6.43;;;3.80;;
15833;SDS011;8017;50.812;4.934;2023-02-28T10:01:43;8.20;;;3.93;;
15833;SDS011;8017;50.812;4.934;2023-02-28T10:04:56;5.77;;;3.10;;
15833;SDS011;8017;50.812;4.934;2023-02-28T10:08:02;5.97;;;3.80;;
15833;SDS011;8017;50.812;4.934;2023-02-28T10:11:09;5.13;;;3.73;;
15833;SDS011;8017;50.812;4.934;2023-02-28T10:14:18;5.37;;;4.00;;
15833;SDS011;8017;50.812;4.934;2023-02-28T10:17:23;5.00;;;3.97;;
15833;SDS011;8017;50.812;4.934;2023-02-28T10:20:28;5.07;;;3.17;;
15833;SDS011;8017;50.812;4.934;2023-02-28T10:23:34;4.47;;;3.20;;
15833;SDS011;8017;50.812;4.934;2023-02-28T10:26:38;10.40;;;3.07;;
15833;SDS011;8017;50.812;4.934;2023-02-28T10:29:45;4.23;;;3.10;;
15833;SDS011;8017;50.812;4.934;2023-02-28T10:32:49;4.70;;;3.00;;
15833;SDS011;8017;50.812;4.934;2023-02-28T10:35:53;4.87;;;2.30;;
15833;SDS011;8017;50.812;4.934;2023-02-28T10:38:55;4.50;;;2.80;;
15833;SDS011;8017;50.812;4.934;2023-02-28T10:41:57;3.23;;;2.53;;
15833;SDS011;8017;50.812;4.934;2023-02-28T10:45:09;6.17;;;2.60;;
15833;SDS011;8017;50.812;4.934;2023-02-28T10:48:26;2.40;;;2.20;;
15833;SDS011;8017;50.812;4.934;2023-02-28T10:51:35;3.60;;;2.67;;
15833;SDS011;8017;50.812;4.934;2023-02-28T10:54:39;5.03;;;2.63;;
15833;SDS011;8017;50.812;4.934;2023-02-28T10:57:41;4.33;;;2.73;;
15833;SDS011;8017;50.812;4.934;2023-02-28T11:00:44;3.33;;;2.30;;
15833;SDS011;8017;50.812;4.934;2023-02-28T11:03:48;2.67;;;2.43;;
15833;SDS011;8017;50.812;4.934;2023-02-28T11:06:56;3.33;;;2.67;;
15833;SDS011;8017;50.812;4.934;2023-02-28T11:09:59;2.67;;;2.40;;
15833;SDS011;8017;50.812;4.934;2023-02-28T11:13:01;4.93;;;2.23;;
15833;SDS011;8017;50.812;4.934;2023-02-28T11:16:06;5.93;;;2.70;;
15833;SDS011;8017;50.812;4.934;2023-02-28T11:19:16;5.83;;;2.77;;
15833;SDS011;8017;50.812;4.934;2023-02-28T11:22:22;2.93;;;2.37;;
15833;SDS011;8017;50.812;4.934;2023-02-28T11:25:29;2.90;;;2.37;;
15833;SDS011;8017;50.812;4.934;2023-02-28T11:28:33;4.10;;;2.83;;
15833;SDS011;8017;50.812;4.934;2023-02-28T11:31:38;21.83;;;8.87;;
15833;SDS011;8017;50.812;4.934;2023-02-28T11:34:40;5.27;;;2.73;;
15833;SDS011;8017;50.812;4.934;2023-02-28T11:37:42;4.57;;;3.03;;
15833;SDS011;8017;50.812;4.934;2023-02-28T11:40:47;3.30;;;2.80;;
15833;SDS011;8017;50.812;4.934;2023-02-28T11:43:58;2.50;;;2.17;;
15833;SDS011;8017;50.812;4.934;2023-02-28T11:47:12;4.37;;;3.10;;
15833;SDS011;8017;50.812;4.934;2023-02-28T11:50:26;2.63;;;2.43;;
15833;SDS011;8017;50.812;4.934;2023-02-28T11:53:45;3.10;;;2.53;;
15833;SDS011;8017;50.812;4.934;2023-02-28T11:57:03;5.33;;;2.47;;
15833;SDS011;8017;50.812;4.934;2023-02-28T12:00:26;2.50;;;2.17;;
15833;SDS011;8017;50.812;4.934;2023-02-28T12:03:43;2.50;;;2.30;;
15833;SDS011;8017;50.812;4.934;2023-02-28T12:06:54;4.53;;;2.57;;
15833;SDS011;8017;50.812;4.934;2023-02-28T12:10:02;9.90;;;2.43;;
15833;SDS011;8017;50.812;4.934;2023-02-28T12:13:15;4.83;;;2.60;;
15833;SDS011;8017;50.812;4.934;2023-02-28T12:16:32;2.63;;;2.23;;
15833;SDS011;8017;50.812;4.934;2023-02-28T12:19:49;3.07;;;2.17;;
15833;SDS011;8017;50.812;4.934;2023-02-28T12:23:03;4.00;;;3.00;;
15833;SDS011;8017;50.812;4.934;2023-02-28T12:26:23;2.40;;;2.20;;
15833;SDS011;8017;50.812;4.934;2023-02-28T12:29:34;3.50;;;2.63;;
15833;SDS011;8017;50.812;4.934;2023-02-28T12:32:44;2.67;;;2.03;;
15833;SDS011;8017;50.812;4.934;2023-02-28T12:35:52;2.87;;;1.90;;
15833;SDS011;8017;50.812;4.934;2023-02-28T12:38:59;2.37;;;2.17;;
15833;SDS011;8017;50.812;4.934;2023-02-28T12:42:05;3.57;;;2.37;;
15833;SDS011;8017;50.812;4.934;2023-02-28T12:45:13;5.70;;;2.40;;
15833;SDS011;8017;50.812;4.934;2023-02-28T12:48:21;2.03;;;1.93;;
15833;SDS011;8017;50.812;4.934;2023-02-28T12:51:28;3.00;;;2.33;;
15833;SDS011;8017;50.812;4.934;2023-02-28T12:54:31;2.97;;;2.00;;
15833;SDS011;8017;50.812;4.934;2023-02-28T12:57:40;3.20;;;2.10;;
15833;SDS011;8017;50.812;4.934;2023-02-28T13:00:53;4.83;;;2.17;;
15833;SDS011;8017;50.812;4.934;2023-02-28T13:11:33;2.40;;;1.93;;
15833;SDS011;8017;50.812;4.934;2023-02-28T13:14:40;2.60;;;2.03;;
15833;SDS011;8017;50.812;4.934;2023-02-28T13:17:42;3.23;;;2.20;;
15833;SDS011;8017;50.812;4.934;2023-02-28T13:20:50;3.20;;;2.20;;
15833;SDS011;8017;50.812;4.934;2023-02-28T13:23:59;2.60;;;2.13;;
15833;SDS011;8017;50.812;4.934;2023-02-28T13:34:05;5.57;;;2.70;;
15833;SDS011;8017;50.812;4.934;2023-02-28T13:37:33;5.23;;;2.97;;
15833;SDS011;8017;50.812;4.934;2023-02-28T13:40:37;4.40;;;2.50;;
15833;SDS011;8017;50.812;4.934;2023-02-28T13:47:24;2.27;;;2.07;;
15833;SDS011;8017;50.812;4.934;2023-02-28T13:50:32;4.93;;;2.60;;
15833;SDS011;8017;50.812;4.934;2023-02-28T13:53:48;4.77;;;2.67;;
15833;SDS011;8017;50.812;4.934;2023-02-28T13:57:10;2.43;;;2.23;;
15833;SDS011;8017;50.812;4.934;2023-02-28T14:00:27;2.43;;;2.23;;
15833;SDS011;8017;50.812;4.934;2023-02-28T14:03:38;2.60;;;2.37;;
15833;SDS011;8017;50.812;4.934;2023-02-28T14:06:51;4.83;;;2.53;;
15833;SDS011;8017;50.812;4.934;2023-02-28T14:09:56;2.60;;;2.40;;
15833;SDS011;8017;50.812;4.934;2023-02-28T14:13:12;4.10;;;2.57;;
15833;SDS011;8017;50.812;4.934;2023-02-28T14:16:36;2.87;;;2.53;;
15833;SDS011;8017;50.812;4.934;2023-02-28T14:19:43;4.00;;;2.47;;
15833;SDS011;8017;50.812;4.934;2023-02-28T14:22:51;3.23;;;2.63;;
15833;SDS011;8017;50.812;4.934;2023-02-28T14:26:01;3.27;;;2.93;;
15833;SDS011;8017;50.812;4.934;2023-02-28T14:29:14;5.00;;;2.93;;
15833;SDS011;8017;50.812;4.934;2023-02-28T14:32:32;3.10;;;2.70;;
15833;SDS011;8017;50.812;4.934;2023-02-28T14:35:42;7.77;;;3.50;;
15833;SDS011;8017;50.812;4.934;2023-02-28T14:38:54;2.93;;;2.70;;
15833;SDS011;8017;50.812;4.934;2023-02-28T14:41:58;3.33;;;2.73;;
15833;SDS011;8017;50.812;4.934;2023-02-28T14:45:05;4.43;;;2.83;;
15833;SDS011;8017;50.812;4.934;2023-02-28T14:48:09;3.37;;;3.07;;
15833;SDS011;8017;50.812;4.934;2023-02-28T14:51:11;4.83;;;2.73;;
15833;SDS011;8017;50.812;4.934;2023-02-28T14:54:19;3.77;;;3.20;;
15833;SDS011;8017;50.812;4.934;2023-02-28T14:57:25;4.10;;;3.23;;
15833;SDS011;8017;50.812;4.934;2023-02-28T15:00:29;5.03;;;3.07;;
15833;SDS011;8017;50.812;4.934;2023-02-28T15:03:34;3.20;;;2.87;;
15833;SDS011;8017;50.812;4.934;2023-02-28T15:06:37;3.47;;;2.87;;
15833;SDS011;8017;50.812;4.934;2023-02-28T15:09:39;2.77;;;2.53;;
15833;SDS011;8017;50.812;4.934;2023-02-28T15:12:41;7.80;;;3.03;;
15833;SDS011;8017;50.812;4.934;2023-02-28T15:15:51;3.27;;;2.93;;
15833;SDS011;8017;50.812;4.934;2023-02-28T15:18:58;5.33;;;3.00;;
15833;SDS011;8017;50.812;4.934;2023-02-28T15:22:02;3.97;;;2.60;;
15833;SDS011;8017;50.812;4.934;2023-02-28T15:25:07;4.17;;;3.00;;
15833;SDS011;8017;50.812;4.934;2023-02-28T15:28:15;4.50;;;3.57;;
15833;SDS011;8017;50.812;4.934;2023-02-28T15:31:21;4.43;;;3.00;;
15833;SDS011;8017;50.812;4.934;2023-02-28T15:34:29;3.97;;;2.90;;
15833;SDS011;8017;50.812;4.934;2023-02-28T15:37:40;3.43;;;2.80;;
15833;SDS011;8017;50.812;4.934;2023-02-28T15:40:50;4.07;;;2.80;;
15833;SDS011;8017;50.812;4.934;2023-02-28T15:44:14;3.27;;;2.87;;
15833;SDS011;8017;50.812;4.934;2023-02-28T15:47:17;6.30;;;2.97;;
15833;SDS011;8017;50.812;4.934;2023-02-28T15:50:22;4.27;;;2.80;;
15833;SDS011;8017;50.812;4.934;2023-02-28T15:53:25;4.23;;;3.07;;
15833;SDS011;8017;50.812;4.934;2023-02-28T15:56:31;3.20;;;2.90;;
15833;SDS011;8017;50.812;4.934;2023-02-28T15:59:36;5.87;;;3.60;;
15833;SDS011;8017;50.812;4.934;2023-02-28T16:02:39;3.27;;;2.77;;
15833;SDS011;8017;50.812;4.934;2023-02-28T16:05:43;3.33;;;3.03;;
15833;SDS011;8017;50.812;4.934;2023-02-28T16:08:44;5.43;;;3.47;;
15833;SDS011;8017;50.812;4.934;2023-02-28T16:11:49;6.10;;;3.07;;
15833;SDS011;8017;50.812;4.934;2023-02-28T16:14:54;5.50;;;2.70;;
15833;SDS011;8017;50.812;4.934;2023-02-28T16:17:59;4.90;;;2.80;;
15833;SDS011;8017;50.812;4.934;2023-02-28T16:21:02;3.77;;;2.90;;
15833;SDS011;8017;50.812;4.934;2023-02-28T16:24:04;5.30;;;3.23;;
15833;SDS011;8017;50.812;4.934;2023-02-28T16:27:09;4.60;;;3.07;;
15833;SDS011;8017;50.812;4.934;2023-02-28T16:30:19;5.40;;;2.70;;
15833;SDS011;8017;50.812;4.934;2023-02-28T16:33:23;3.93;;;2.97;;
15833;SDS011;8017;50.812;4.934;2023-02-28T16:36:26;3.43;;;2.60;;
15833;SDS011;8017;50.812;4.934;2023-02-28T16:39:30;4.13;;;2.97;;
15833;SDS011;8017;50.812;4.934;2023-02-28T16:42:32;6.63;;;3.43;;
15833;SDS011;8017;50.812;4.934;2023-02-28T16:45:34;5.27;;;3.20;;
15833;SDS011;8017;50.812;4.934;2023-02-28T16:48:36;4.40;;;3.17;;
15833;SDS011;8017;50.812;4.934;2023-02-28T16:51:40;3.50;;;3.20;;
15833;SDS011;8017;50.812;4.934;2023-02-28T16:54:42;4.03;;;3.40;;
15833;SDS011;8017;50.812;4.934;2023-02-28T16:57:44;5.77;;;3.37;;
15833;SDS011;8017;50.812;4.934;2023-02-28T17:00:50;4.93;;;3.60;;
15833;SDS011;8017;50.812;4.934;2023-02-28T17:03:52;4.50;;;3.20;;
15833;SDS011;8017;50.812;4.934;2023-02-28T17:06:56;4.30;;;3.27;;
15833;SDS011;8017;50.812;4.934;2023-02-28T17:09:58;4.00;;;3.43;;
15833;SDS011;8017;50.812;4.934;2023-02-28T17:13:08;3.90;;;3.50;;
15833;SDS011;8017;50.812;4.934;2023-02-28T17:16:13;6.50;;;3.50;;
15833;SDS011;8017;50.812;4.934;2023-02-28T17:19:21;5.37;;;3.47;;
15833;SDS011;8017;50.812;4.934;2023-02-28T17:22:24;6.43;;;3.93;;
15833;SDS011;8017;50.812;4.934;2023-02-28T17:25:26;8.70;;;4.20;;
15833;SDS011;8017;50.812;4.934;2023-02-28T17:28:28;5.20;;;3.73;;
15833;SDS011;8017;50.812;4.934;2023-02-28T17:31:30;6.60;;;4.07;;
15833;SDS011;8017;50.812;4.934;2023-02-28T17:34:33;10.70;;;6.87;;
15833;SDS011;8017;50.812;4.934;2023-02-28T17:37:36;6.83;;;4.03;;
15833;SDS011;8017;50.812;4.934;2023-02-28T17:40:38;6.67;;;4.10;;
15833;SDS011;8017;50.812;4.934;2023-02-28T17:43:40;7.20;;;4.13;;
15833;SDS011;8017;50.812;4.934;2023-02-28T17:46:42;6.73;;;3.67;;
15833;SDS011;8017;50.812;4.934;2023-02-28T17:49:45;6.37;;;4.67;;
15833;SDS011;8017;50.812;4.934;2023-02-28T17:52:48;6.97;;;4.83;;
15833;SDS011;8017;50.812;4.934;2023-02-28T17:55:50;4.57;;;4.07;;
15833;SDS011;8017;50.812;4.934;2023-02-28T17:58:52;7.07;;;4.53;;
15833;SDS011;8017;50.812;4.934;2023-02-28T18:01:56;10.67;;;5.13;;
15833;SDS011;8017;50.812;4.934;2023-02-28T18:04:58;7.83;;;5.10;;
15833;SDS011;8017;50.812;4.934;2023-02-28T18:08:01;6.93;;;4.80;;
15833;SDS011;8017;50.812;4.934;2023-02-28T18:11:03;8.60;;;5.30;;
15833;SDS011;8017;50.812;4.934;2023-02-28T18:14:05;5.40;;;4.30;;
15833;SDS011;8017;50.812;4.934;2023-02-28T18:17:08;4.87;;;4.20;;
15833;SDS011;8017;50.812;4.934;2023-02-28T18:20:12;5.47;;;4.57;;
15833;SDS011;8017;50.812;4.934;2023-02-28T18:23:15;5.83;;;4.47;;
15833;SDS011;8017;50.812;4.934;2023-02-28T18:26:19;8.33;;;5.57;;
15833;SDS011;8017;50.812;4.934;2023-02-28T18:29:22;9.77;;;6.73;;
15833;SDS011;8017;50.812;4.934;2023-02-28T18:32:25;8.63;;;6.57;;
15833;SDS011;8017;50.812;4.934;2023-02-28T18:35:27;9.30;;;6.20;;
15833;SDS011;8017;50.812;4.934;2023-02-28T18:38:38;13.73;;;8.53;;
15833;SDS011;8017;50.812;4.934;2023-02-28T18:41:40;12.93;;;7.77;;
15833;SDS011;8017;50.812;4.934;2023-02-28T18:44:42;14.17;;;7.90;;
15833;SDS011;8017;50.812;4.934;2023-02-28T18:47:44;9.83;;;6.33;;
15833;SDS011;8017;50.812;4.934;2023-02-28T18:50:46;10.43;;;6.10;;
15833;SDS011;8017;50.812;4.934;2023-02-28T18:53:49;17.43;;;8.30;;
15833;SDS011;8017;50.812;4.934;2023-02-28T18:56:51;14.60;;;9.17;;
15833;SDS011;8017;50.812;4.934;2023-02-28T18:59:53;15.83;;;9.53;;
15833;SDS011;8017;50.812;4.934;2023-02-28T19:02:55;12.60;;;8.20;;
15833;SDS011;8017;50.812;4.934;2023-02-28T19:05:58;10.97;;;7.57;;
15833;SDS011;8017;50.812;4.934;2023-02-28T19:09:05;11.07;;;7.50;;
15833;SDS011;8017;50.812;4.934;2023-02-28T19:12:10;9.03;;;6.37;;